createdAt,value
2017-11-15T00:01:15.141Z,14.77
2017-11-15T00:03:44.512Z,12.90
2017-11-15T00:06:13.564Z,12.90
2017-11-15T00:08:41.857Z,15.33
2017-11-15T00:11:10.173Z,20.43
2017-11-15T00:13:39.736Z,13.90
2017-11-15T00:16:08.096Z,15.53
2017-11-15T00:18:37.216Z,19.57
2017-11-15T00:21:06.296Z,12.17
2017-11-15T00:23:34.613Z,23.37
2017-11-15T00:26:03.680Z,18.13
2017-11-15T00:28:31.983Z,15.70
2017-11-15T00:31:01.871Z,16.40
2017-11-15T00:33:30.152Z,20.97
2017-11-15T00:35:59.425Z,16.27
2017-11-15T00:38:28.479Z,18.80
2017-11-15T00:40:56.792Z,21.70
2017-11-15T00:43:25.100Z,27.17
2017-11-15T00:45:55.125Z,18.10
2017-11-15T00:48:23.432Z,19.30
2017-11-15T00:50:52.505Z,17.47
2017-11-15T00:53:20.795Z,19.13
2017-11-15T00:55:49.197Z,14.63
2017-11-15T00:58:17.485Z,21.17
2017-11-15T01:00:45.800Z,15.53
2017-11-15T01:03:14.852Z,19.43
2017-11-15T01:05:43.141Z,14.63
2017-11-15T01:08:12.224Z,19.33
2017-11-15T01:10:40.541Z,18.70
2017-11-15T01:13:08.836Z,15.37
2017-11-15T01:15:37.152Z,17.90
2017-11-15T01:18:05.435Z,15.70
2017-11-15T01:20:33.755Z,20.63
2017-11-15T01:23:02.808Z,17.50
2017-11-15T01:25:31.103Z,18.93
2017-11-15T01:27:59.447Z,21.77
2017-11-15T01:30:29.513Z,16.53
2017-11-15T01:32:57.828Z,12.60
2017-11-15T01:35:26.139Z,16.23
2017-11-15T01:37:54.484Z,14.40
2017-11-15T01:40:22.807Z,17.00
2017-11-15T01:42:51.164Z,16.53
2017-11-15T01:45:19.450Z,17.37
2017-11-15T01:47:47.741Z,13.20
2017-11-15T01:50:16.052Z,16.63
2017-11-15T01:52:44.327Z,11.07
2017-11-15T01:55:12.982Z,15.90
2017-11-15T01:57:42.040Z,13.20
2017-11-15T02:00:11.069Z,18.97
2017-11-15T02:02:39.387Z,16.73
2017-11-15T02:05:08.640Z,15.30
2017-11-15T02:07:36.923Z,16.23
2017-11-15T02:10:05.356Z,21.53
2017-11-15T02:12:34.949Z,16.83
2017-11-15T02:15:03.236Z,22.30
2017-11-15T02:17:32.375Z,22.50
2017-11-15T02:20:00.745Z,22.03
2017-11-15T02:22:29.106Z,19.13
2017-11-15T02:24:57.385Z,17.00
2017-11-15T02:27:25.676Z,17.43
2017-11-15T02:29:54.002Z,23.13
2017-11-15T02:32:22.289Z,20.63
2017-11-15T02:34:51.909Z,21.00
2017-11-15T02:37:20.223Z,23.70
2017-11-15T02:39:48.622Z,24.80
2017-11-15T02:42:16.985Z,22.87
2017-11-15T02:44:45.279Z,24.87
2017-11-15T02:47:13.568Z,16.30
2017-11-15T02:49:41.904Z,18.20
2017-11-15T02:52:10.221Z,16.00
2017-11-15T02:54:38.921Z,23.80
2017-11-15T02:57:07.237Z,17.60
2017-11-15T02:59:36.265Z,19.00
2017-11-15T03:02:05.340Z,16.13
2017-11-15T03:04:35.411Z,16.87
2017-11-15T03:07:04.464Z,21.10
2017-11-15T03:09:32.860Z,19.97
2017-11-15T03:12:01.155Z,20.47
2017-11-15T03:14:29.452Z,23.53
2017-11-15T03:16:57.807Z,20.83
2017-11-15T03:19:27.052Z,18.40
2017-11-15T03:21:55.332Z,17.83
2017-11-15T03:24:23.748Z,19.60
2017-11-15T03:26:52.041Z,18.47
2017-11-15T03:29:20.380Z,20.93
2017-11-15T03:31:48.681Z,20.73
2017-11-15T03:34:17.015Z,16.93
2017-11-15T03:36:45.329Z,25.57
2017-11-15T03:39:13.645Z,18.47
2017-11-15T03:41:41.928Z,17.90
2017-11-15T03:44:10.257Z,19.73
2017-11-15T03:46:38.547Z,23.77
2017-11-15T03:49:08.484Z,24.43
2017-11-15T03:51:36.789Z,17.60
2017-11-15T03:54:05.847Z,18.00
2017-11-15T03:56:34.162Z,16.90
2017-11-15T03:59:02.556Z,26.57
2017-11-15T04:01:31.923Z,19.17
2017-11-15T04:04:00.202Z,20.10
2017-11-15T04:06:28.516Z,19.90
2017-11-15T04:08:56.936Z,21.13
2017-11-15T04:11:25.320Z,18.90
2017-11-15T04:13:56.341Z,17.63
2017-11-15T04:16:24.670Z,29.53
2017-11-15T04:18:53.063Z,21.93
2017-11-15T04:21:21.351Z,30.03
2017-11-15T04:23:49.739Z,21.57
2017-11-15T04:26:18.029Z,28.43
2017-11-15T04:28:46.458Z,18.27
2017-11-15T04:31:14.741Z,19.07
2017-11-15T04:33:43.801Z,18.77
2017-11-15T04:36:12.144Z,16.47
2017-11-15T04:38:40.448Z,20.60
2017-11-15T04:41:08.764Z,24.07
2017-11-15T04:43:37.054Z,27.10
2017-11-15T04:46:05.397Z,18.13
2017-11-15T04:48:34.452Z,26.20
2017-11-15T04:51:02.861Z,21.47
2017-11-15T04:53:31.156Z,23.00
2017-11-15T04:55:59.451Z,21.80
2017-11-15T04:58:27.803Z,27.03
2017-11-15T05:00:56.137Z,27.50
2017-11-15T05:03:24.416Z,36.70
2017-11-15T05:05:52.736Z,25.50
2017-11-15T05:08:21.060Z,28.97
2017-11-15T05:10:49.347Z,34.30
2017-11-15T05:13:17.679Z,30.17
2017-11-15T05:15:46.895Z,33.00
2017-11-15T05:18:15.992Z,34.17
2017-11-15T05:20:44.290Z,33.03
2017-11-15T05:23:12.681Z,36.63
2017-11-15T05:25:41.838Z,35.37
2017-11-15T05:28:10.133Z,38.60
2017-11-15T05:30:38.452Z,38.93
2017-11-15T05:33:06.777Z,45.00
2017-11-15T05:35:35.840Z,35.10
2017-11-15T05:38:04.170Z,40.90
2017-11-15T05:40:33.237Z,40.30
2017-11-15T05:43:01.542Z,57.80
2017-11-15T05:45:30.684Z,38.53
2017-11-15T05:47:59.017Z,33.30
2017-11-15T05:50:27.300Z,45.70
2017-11-15T05:52:56.428Z,48.87
2017-11-15T05:55:24.759Z,40.47
2017-11-15T05:57:53.816Z,48.77
2017-11-15T06:00:23.006Z,36.40
2017-11-15T06:02:51.314Z,40.60
2017-11-15T06:05:19.645Z,42.17
2017-11-15T06:07:48.836Z,41.80
2017-11-15T06:10:18.593Z,40.50
2017-11-15T06:12:46.893Z,42.53
2017-11-15T06:15:15.142Z,43.47
2017-11-15T06:17:43.498Z,40.93
2017-11-15T06:20:12.628Z,45.50
2017-11-15T06:22:41.733Z,49.77
2017-11-15T06:25:10.845Z,44.13
2017-11-15T06:27:39.095Z,42.70
2017-11-15T06:30:07.409Z,52.97
2017-11-15T06:32:35.835Z,52.63
2017-11-15T06:35:06.176Z,51.80
2017-11-15T06:37:35.229Z,42.20
2017-11-15T06:40:03.440Z,58.00
2017-11-15T06:42:31.959Z,44.10
2017-11-15T06:45:01.052Z,59.20
2017-11-15T06:47:29.352Z,44.10
2017-11-15T06:49:57.672Z,50.40
2017-11-15T06:52:25.965Z,46.10
2017-11-15T06:54:54.287Z,38.73
2017-11-15T06:57:22.584Z,46.10
2017-11-15T06:59:50.903Z,49.87
2017-11-15T07:02:19.958Z,47.67
2017-11-15T07:04:50.539Z,52.80
2017-11-15T07:07:18.856Z,41.20
2017-11-15T07:09:47.940Z,38.40
2017-11-15T07:12:16.328Z,41.73
2017-11-15T07:14:44.828Z,37.63
2017-11-15T07:17:13.117Z,38.83
2017-11-15T07:19:41.500Z,32.37
2017-11-15T07:22:09.816Z,31.90
2017-11-15T07:24:38.912Z,44.70
2017-11-15T07:27:07.236Z,32.37
2017-11-15T07:29:35.528Z,38.23
2017-11-15T07:32:03.855Z,32.07
2017-11-15T07:34:32.264Z,34.47
2017-11-15T07:37:00.591Z,42.57
2017-11-15T07:39:28.921Z,38.17
2017-11-15T07:41:57.244Z,38.83
2017-11-15T07:44:26.380Z,34.33
2017-11-15T07:46:54.731Z,29.60
2017-11-15T07:49:23.020Z,27.30
2017-11-15T07:51:51.343Z,33.10
2017-11-15T07:54:19.647Z,31.20
2017-11-15T07:56:47.995Z,27.23
2017-11-15T07:59:16.287Z,30.20
2017-11-15T08:01:44.616Z,24.90
2017-11-15T08:04:12.937Z,32.83
2017-11-15T08:06:41.319Z,30.33
2017-11-15T08:09:09.620Z,24.10
2017-11-15T08:11:37.935Z,23.53
2017-11-15T08:14:06.245Z,25.17
2017-11-15T08:16:36.124Z,32.03
2017-11-15T08:19:04.535Z,29.70
2017-11-15T08:21:32.866Z,19.47
2017-11-15T08:24:01.188Z,23.10
2017-11-15T08:26:29.528Z,27.97
2017-11-15T08:28:57.819Z,27.63
2017-11-15T08:31:26.118Z,29.80
2017-11-15T08:33:54.440Z,22.17
2017-11-15T08:36:23.491Z,25.43
2017-11-15T08:38:51.844Z,28.00
2017-11-15T08:41:20.897Z,28.30
2017-11-15T08:43:49.213Z,30.87
2017-11-15T08:46:17.556Z,34.50
2017-11-15T08:48:45.844Z,34.57
2017-11-15T08:51:14.137Z,31.70
2017-11-15T08:53:42.465Z,31.23
2017-11-15T08:56:10.757Z,29.10
2017-11-15T08:58:39.069Z,34.17
2017-11-15T09:01:08.124Z,32.33
2017-11-15T09:03:36.440Z,30.83
2017-11-15T09:06:04.767Z,29.30
2017-11-15T09:08:33.052Z,29.27
2017-11-15T09:11:01.368Z,34.10
2017-11-15T09:13:29.684Z,32.67
2017-11-15T09:15:57.992Z,39.93
2017-11-15T09:18:26.306Z,31.50
2017-11-15T09:20:54.665Z,35.53
2017-11-15T09:23:22.988Z,33.63
2017-11-15T09:25:51.341Z,29.40
2017-11-15T09:28:19.672Z,36.23
2017-11-15T09:30:49.969Z,33.53
2017-11-15T09:33:18.303Z,29.53
2017-11-15T09:35:46.588Z,28.20
2017-11-15T09:38:15.028Z,32.70
2017-11-15T09:40:43.327Z,39.50
2017-11-15T09:43:13.145Z,34.03
2017-11-15T09:48:17.008Z,33.83
2017-11-15T09:50:46.077Z,38.50
2017-11-15T09:53:14.498Z,44.10
2017-11-15T09:55:43.568Z,45.10
2017-11-15T09:58:11.855Z,39.30
2017-11-15T10:00:40.163Z,42.43
2017-11-15T10:03:08.489Z,38.70
2017-11-15T10:05:37.580Z,33.53
2017-11-15T10:08:05.964Z,43.90
2017-11-15T10:10:34.357Z,38.00
2017-11-15T10:13:02.752Z,36.83
2017-11-15T10:15:31.076Z,35.23
2017-11-15T10:17:59.380Z,38.80
2017-11-15T10:20:27.667Z,33.10
2017-11-15T10:22:55.980Z,29.03
2017-11-15T10:25:24.272Z,33.47
2017-11-15T10:27:52.592Z,36.30
2017-11-15T10:30:20.891Z,31.50
2017-11-15T10:32:49.969Z,31.93
2017-11-15T10:35:18.277Z,36.50
2017-11-15T10:37:46.597Z,35.80
2017-11-15T10:40:14.888Z,33.43
2017-11-15T10:42:43.203Z,36.00
2017-11-15T10:45:11.576Z,25.00
2017-11-15T10:47:39.864Z,36.97
2017-11-15T10:50:08.164Z,30.03
2017-11-15T10:52:36.596Z,30.07
2017-11-15T10:55:04.945Z,28.33
2017-11-15T10:57:33.315Z,24.93
2017-11-15T11:00:02.375Z,31.13
2017-11-15T11:02:30.675Z,27.10
2017-11-15T11:04:59.832Z,32.30
2017-11-15T11:07:28.132Z,28.83
2017-11-15T11:09:56.424Z,22.73
2017-11-15T11:12:24.740Z,25.93
2017-11-15T11:14:53.040Z,17.67
2017-11-15T11:17:21.376Z,28.80
2017-11-15T11:19:49.693Z,26.80
2017-11-15T11:22:18.020Z,20.13
2017-11-15T11:24:46.312Z,21.73
2017-11-15T11:27:14.629Z,23.10
2017-11-15T11:29:42.922Z,20.70
2017-11-15T11:32:11.259Z,22.77
2017-11-15T11:34:39.553Z,24.47
2017-11-15T11:37:07.899Z,25.43
2017-11-15T11:39:36.228Z,22.17
2017-11-15T11:42:04.522Z,25.93
2017-11-15T11:44:34.380Z,20.00
2017-11-15T11:47:03.443Z,21.93
2017-11-15T11:49:31.824Z,21.10
2017-11-15T11:52:00.143Z,24.23
2017-11-15T11:54:28.528Z,24.53
2017-11-15T11:56:57.024Z,21.90
2017-11-15T11:59:25.318Z,23.03
2017-11-15T12:01:55.225Z,17.17
2017-11-15T12:04:23.549Z,20.07
2017-11-15T12:06:52.605Z,21.67
2017-11-15T12:09:20.932Z,20.83
2017-11-15T12:11:49.217Z,19.10
2017-11-15T12:14:17.544Z,18.60
2017-11-15T12:16:45.873Z,18.57
2017-11-15T12:19:14.187Z,22.37
2017-11-15T12:21:42.526Z,16.47
2017-11-15T12:24:10.889Z,15.77
2017-11-15T12:26:39.985Z,16.23
2017-11-15T12:29:08.276Z,15.70
2017-11-15T12:31:36.592Z,14.93
2017-11-15T12:34:04.880Z,18.13
2017-11-15T12:36:33.196Z,15.33
2017-11-15T12:39:01.486Z,14.47
2017-11-15T12:41:29.912Z,18.17
2017-11-15T12:43:58.244Z,14.17
2017-11-15T12:46:26.570Z,17.60
2017-11-15T12:48:54.865Z,15.03
2017-11-15T12:51:23.176Z,15.00
2017-11-15T12:53:51.461Z,14.63
2017-11-15T12:56:19.789Z,18.60
2017-11-15T12:58:48.141Z,14.03
2017-11-15T13:01:16.445Z,20.90
2017-11-15T13:03:44.824Z,16.17
2017-11-15T13:06:13.303Z,19.10
2017-11-15T13:08:41.593Z,16.37
2017-11-15T13:11:09.993Z,20.73
2017-11-15T13:13:38.383Z,21.87
2017-11-15T13:16:06.748Z,22.97
2017-11-15T13:18:35.063Z,20.70
2017-11-15T13:21:03.356Z,19.83
2017-11-15T13:23:31.684Z,19.30
2017-11-15T13:26:00.037Z,14.73
2017-11-15T13:28:29.106Z,14.60
2017-11-15T13:30:57.440Z,14.80
2017-11-15T13:33:25.723Z,15.67
2017-11-15T13:35:54.051Z,18.13
2017-11-15T13:38:22.379Z,13.90
2017-11-15T13:40:50.668Z,18.73
2017-11-15T13:43:19.080Z,18.37
2017-11-15T13:45:47.411Z,14.80
2017-11-15T13:48:15.700Z,16.30
2017-11-15T13:50:44.030Z,20.27
2017-11-15T13:53:12.360Z,19.30
2017-11-15T13:55:41.434Z,19.90
2017-11-15T13:58:09.755Z,14.43
2017-11-15T14:00:38.045Z,17.53
2017-11-15T14:03:07.140Z,22.80
2017-11-15T14:05:35.431Z,34.47
2017-11-15T14:08:03.764Z,17.10
2017-11-15T14:10:32.096Z,18.43
2017-11-15T14:13:00.456Z,15.07
2017-11-15T14:15:28.740Z,15.40
2017-11-15T14:17:57.026Z,14.57
2017-11-15T14:20:25.345Z,18.10
2017-11-15T14:22:53.634Z,24.53
2017-11-15T14:25:21.965Z,15.70
2017-11-15T14:27:51.020Z,19.30
2017-11-15T14:30:19.333Z,14.47
2017-11-15T14:32:47.620Z,22.90
2017-11-15T14:35:15.949Z,18.10
2017-11-15T14:37:44.281Z,23.20
2017-11-15T14:40:12.657Z,21.87
2017-11-15T14:42:40.958Z,24.20
2017-11-15T14:45:09.252Z,18.00
2017-11-15T14:47:37.656Z,17.80
2017-11-15T14:50:05.958Z,20.80
2017-11-15T14:52:34.255Z,18.90
2017-11-15T14:55:04.699Z,19.50
2017-11-15T14:57:33.748Z,18.87
2017-11-15T15:00:02.044Z,22.30
2017-11-15T15:02:30.456Z,19.50
2017-11-15T15:04:58.768Z,20.83
2017-11-15T15:07:27.065Z,23.20
2017-11-15T15:09:56.199Z,30.63
2017-11-15T15:12:24.488Z,29.33
2017-11-15T15:14:52.792Z,25.83
2017-11-15T15:17:21.109Z,31.37
2017-11-15T15:19:49.439Z,33.23
2017-11-15T15:22:18.524Z,28.60
2017-11-15T15:24:46.813Z,23.73
2017-11-15T15:27:15.140Z,33.37
2017-11-15T15:29:43.461Z,32.53
2017-11-15T15:32:11.785Z,46.10
2017-11-15T15:34:41.576Z,44.30
2017-11-15T15:37:09.936Z,37.30
2017-11-15T15:39:38.231Z,20.20
2017-11-15T15:42:06.521Z,20.40
2017-11-15T15:44:34.845Z,21.33
2017-11-15T15:47:03.143Z,29.30
2017-11-15T15:49:31.431Z,23.97
2017-11-15T15:51:59.760Z,24.10
2017-11-15T15:54:30.067Z,24.63
2017-11-15T15:56:58.368Z,26.57
2017-11-15T15:59:28.596Z,18.50
2017-11-15T16:01:56.880Z,24.93
2017-11-15T16:04:25.258Z,17.63
2017-11-15T16:06:53.580Z,16.83
2017-11-15T16:09:22.685Z,26.90
2017-11-15T16:11:51.748Z,18.60
2017-11-15T16:14:20.072Z,25.63
2017-11-15T16:16:48.367Z,21.50
2017-11-15T16:19:17.564Z,17.40
2017-11-15T16:21:47.368Z,22.60
2017-11-15T16:24:15.661Z,22.90
2017-11-15T16:26:43.970Z,22.93
2017-11-15T16:29:12.259Z,18.90
2017-11-15T16:31:40.585Z,23.50
2017-11-15T16:34:08.903Z,27.80
2017-11-15T16:36:37.223Z,17.70
2017-11-15T16:39:05.522Z,19.60
2017-11-15T16:41:33.835Z,20.60
2017-11-15T16:44:02.135Z,23.37
2017-11-15T16:46:30.460Z,28.70
2017-11-15T16:48:58.756Z,26.20
2017-11-15T16:51:27.235Z,27.70
2017-11-15T16:53:55.550Z,22.07
2017-11-15T16:56:23.859Z,19.27
2017-11-15T16:58:52.912Z,25.07
2017-11-15T17:01:21.239Z,26.13
2017-11-15T17:03:49.541Z,22.07
2017-11-15T17:06:17.860Z,24.40
2017-11-15T17:08:46.164Z,25.07
2017-11-15T17:11:14.706Z,30.30
2017-11-15T17:13:42.995Z,23.20
2017-11-15T17:16:11.289Z,29.50
2017-11-15T17:18:39.668Z,23.57
2017-11-15T17:21:07.955Z,32.33
2017-11-15T17:23:36.353Z,31.47
2017-11-15T17:26:04.676Z,30.70
2017-11-15T17:28:32.980Z,27.47
2017-11-15T17:31:01.345Z,27.80
2017-11-15T17:33:30.401Z,28.67
2017-11-15T17:35:58.706Z,28.53
2017-11-15T17:38:27.031Z,32.73
2017-11-15T17:40:56.119Z,31.80
2017-11-15T17:43:24.510Z,31.10
2017-11-15T17:45:52.837Z,28.50
2017-11-15T17:48:21.170Z,27.40
2017-11-15T17:50:49.491Z,33.17
2017-11-15T17:53:18.549Z,38.23
2017-11-15T17:55:46.863Z,33.97
2017-11-15T17:58:15.156Z,41.10
2017-11-15T18:00:44.989Z,37.27
2017-11-15T18:03:13.284Z,26.90
2017-11-15T18:05:41.600Z,32.97
2017-11-15T18:08:10.647Z,37.23
2017-11-15T18:10:38.972Z,44.17
2017-11-15T18:13:07.252Z,36.40
2017-11-15T18:15:35.635Z,38.80
2017-11-15T18:18:03.959Z,30.77
2017-11-15T18:20:33.012Z,38.00
2017-11-15T18:23:01.311Z,36.67
2017-11-15T18:25:29.627Z,32.10
2017-11-15T18:27:58.698Z,32.70
2017-11-15T18:30:27.013Z,34.37
2017-11-15T18:32:55.312Z,35.23
2017-11-15T18:35:25.635Z,31.43
2017-11-15T18:37:53.935Z,27.67
2017-11-15T18:40:23.024Z,26.30
2017-11-15T18:42:51.317Z,30.87
2017-11-15T18:45:19.624Z,42.53
2017-11-15T18:47:48.680Z,35.03
2017-11-15T18:50:16.992Z,28.73
2017-11-15T18:52:45.607Z,37.00
2017-11-15T18:55:13.915Z,28.87
2017-11-15T18:57:42.979Z,27.53
2017-11-15T19:00:11.299Z,31.10
2017-11-15T19:02:40.359Z,29.77
2017-11-15T19:05:08.772Z,27.30
2017-11-15T19:07:37.111Z,36.70
2017-11-15T19:10:05.517Z,32.87
2017-11-15T19:12:33.828Z,32.47
2017-11-15T19:15:02.237Z,32.10
2017-11-15T19:17:30.560Z,33.17
2017-11-15T19:20:00.664Z,29.37
2017-11-15T19:22:28.952Z,32.80
2017-11-15T19:24:57.259Z,28.47
2017-11-15T19:27:26.315Z,29.20
2017-11-15T19:29:54.679Z,36.67
2017-11-15T19:32:22.976Z,31.80
2017-11-15T19:34:51.252Z,36.87
2017-11-15T19:37:19.560Z,28.53
2017-11-15T19:39:47.872Z,41.40
2017-11-15T19:42:16.165Z,40.97
2017-11-15T19:44:44.495Z,36.87
2017-11-15T19:47:13.555Z,38.00
2017-11-15T19:49:41.872Z,37.77
2017-11-15T19:52:10.187Z,36.23
2017-11-15T19:54:39.314Z,30.83
2017-11-15T19:57:07.622Z,37.47
2017-11-15T19:59:36.047Z,41.37
2017-11-15T20:02:04.440Z,32.30
2017-11-15T20:04:34.061Z,30.90
2017-11-15T20:07:02.400Z,27.90
2017-11-15T20:09:30.728Z,34.83
2017-11-15T20:11:59.031Z,30.83
2017-11-15T20:14:27.328Z,36.00
2017-11-15T20:16:56.414Z,29.87
2017-11-15T20:19:24.736Z,32.60
2017-11-15T20:21:53.819Z,34.73
2017-11-15T20:24:22.135Z,27.37
2017-11-15T20:26:50.433Z,27.43
2017-11-15T20:29:18.772Z,27.07
2017-11-15T20:31:47.067Z,31.47
2017-11-15T20:34:15.377Z,29.57
2017-11-15T20:36:44.439Z,28.83
2017-11-15T20:39:12.751Z,24.90
2017-11-15T20:41:41.051Z,30.43
2017-11-15T20:44:09.364Z,33.17
2017-11-15T20:46:37.657Z,33.03
2017-11-15T20:49:05.984Z,30.40
2017-11-15T20:51:34.300Z,35.10
2017-11-15T20:54:02.789Z,31.93
2017-11-15T20:56:31.081Z,29.80
2017-11-15T20:58:59.368Z,32.43
2017-11-15T21:01:27.699Z,34.40
2017-11-15T21:03:55.995Z,33.07
2017-11-15T21:06:24.327Z,37.77
2017-11-15T21:08:52.631Z,32.40
2017-11-15T21:11:22.109Z,35.70
2017-11-15T21:13:50.444Z,36.97
2017-11-15T21:16:19.826Z,34.13
2017-11-15T21:18:48.111Z,34.70
2017-11-15T21:21:16.435Z,42.03
2017-11-15T21:23:44.767Z,34.50
2017-11-15T21:26:13.109Z,40.70
2017-11-15T21:28:41.500Z,37.53
2017-11-15T21:31:09.826Z,34.07
2017-11-15T21:33:38.166Z,40.97
2017-11-15T21:36:07.272Z,33.60
2017-11-15T21:38:35.591Z,42.17
2017-11-15T21:41:03.905Z,45.03
2017-11-15T21:43:32.220Z,30.83
2017-11-15T21:46:00.516Z,41.20
2017-11-15T21:48:28.837Z,45.03
2017-11-15T21:50:58.961Z,33.20
2017-11-15T21:53:27.356Z,36.10
2017-11-15T21:55:57.084Z,34.33
2017-11-15T21:58:25.552Z,39.03
2017-11-15T22:00:53.841Z,31.83
2017-11-15T22:03:22.155Z,42.17
2017-11-15T22:05:50.490Z,33.00
2017-11-15T22:08:18.837Z,43.23
2017-11-15T22:10:48.636Z,38.43
2017-11-15T22:13:17.039Z,52.23
2017-11-15T22:15:46.628Z,35.93
2017-11-15T22:18:14.940Z,58.47
2017-11-15T22:20:43.289Z,40.73
2017-11-15T22:23:11.637Z,49.87
2017-11-15T22:25:41.064Z,51.07
2017-11-15T22:28:10.230Z,46.47
2017-11-15T22:30:38.590Z,43.23
2017-11-15T22:33:06.940Z,49.37
2017-11-15T22:35:35.268Z,42.77
2017-11-15T22:38:03.616Z,49.43
2017-11-15T22:40:31.934Z,55.20
2017-11-15T22:43:01.025Z,49.43
2017-11-15T22:45:29.354Z,77.70
2017-11-15T22:47:57.644Z,64.67
2017-11-15T22:50:25.956Z,55.17
2017-11-15T22:52:54.273Z,78.90
2017-11-15T22:55:22.568Z,106.97
2017-11-15T22:57:50.944Z,57.77
2017-11-15T23:00:21.089Z,61.30
2017-11-15T23:02:49.523Z,57.13
2017-11-15T23:05:17.816Z,51.80
2017-11-15T23:07:46.109Z,53.13
2017-11-15T23:10:14.448Z,62.77
2017-11-15T23:12:42.780Z,50.27
2017-11-15T23:15:11.100Z,55.07
2017-11-15T23:17:39.428Z,135.20
2017-11-15T23:20:07.715Z,118.33
2017-11-15T23:22:36.816Z,57.93
2017-11-15T23:25:05.108Z,58.30
2017-11-15T23:27:34.900Z,96.20
2017-11-15T23:30:03.222Z,44.37
2017-11-15T23:32:31.554Z,65.07
2017-11-15T23:34:59.843Z,66.23
2017-11-15T23:37:28.180Z,46.93
2017-11-15T23:39:56.470Z,97.57
2017-11-15T23:42:24.780Z,63.63
2017-11-15T23:44:53.070Z,56.80
2017-11-15T23:47:22.168Z,61.83
2017-11-15T23:49:50.494Z,65.20
2017-11-15T23:52:18.824Z,89.50
2017-11-15T23:54:47.111Z,62.17
2017-11-15T23:57:15.435Z,87.90
2017-11-15T23:59:44.537Z,62.07
